sensor_id;sensor_type;location;lat;lon;timestamp;pressure;altitude;pressure_sealevel;temperature
24586;BMP280;12743;52.262;6.172;2023-06-10T00:00:07;101111.88;;;20.88
24586;BMP280;12743;52.262;6.172;2023-06-10T00:02:41;101117.31;;;20.60
24586;BMP280;12743;52.262;6.172;2023-06-10T00:05:09;101122.63;;;20.70
24586;BMP280;12743;52.262;6.172;2023-06-10T00:07:37;101121.53;;;20.50
24586;BMP280;12743;52.262;6.172;2023-06-10T00:10:07;101111.59;;;20.61
24586;BMP280;12743;52.262;6.172;2023-06-10T00:12:34;101120.66;;;20.85
24586;BMP280;12743;52.262;6.172;2023-06-10T00:15:05;101110.38;;;20.80
24586;BMP280;12743;52.262;6.172;2023-06-10T00:17:33;101101.69;;;20.51
24586;BMP280;12743;52.262;6.172;2023-06-10T00:19:59;101127.63;;;20.61
24586;BMP280;12743;52.262;6.172;2023-06-10T00:22:26;101126.47;;;20.55
24586;BMP280;12743;52.262;6.172;2023-06-10T00:24:55;101121.13;;;20.59
24586;BMP280;12743;52.262;6.172;2023-06-10T00:27:25;101096.78;;;20.46
24586;BMP280;12743;52.262;6.172;2023-06-10T00:29:58;101124.91;;;20.79
24586;BMP280;12743;52.262;6.172;2023-06-10T00:32:27;101120.38;;;20.58
24586;BMP280;12743;52.262;6.172;2023-06-10T00:34:54;101120.06;;;20.25
24586;BMP280;12743;52.262;6.172;2023-06-10T00:37:21;101091.06;;;20.44
24586;BMP280;12743;52.262;6.172;2023-06-10T00:39:48;101130.28;;;20.51
24586;BMP280;12743;52.262;6.172;2023-06-10T00:42:14;101128.03;;;20.49
24586;BMP280;12743;52.262;6.172;2023-06-10T00:44:41;101124.25;;;20.33
24586;BMP280;12743;52.262;6.172;2023-06-10T00:47:09;101126.50;;;20.34
24586;BMP280;12743;52.262;6.172;2023-06-10T00:49:36;101133.41;;;20.04
24586;BMP280;12743;52.262;6.172;2023-06-10T00:52:04;101132.63;;;20.14
24586;BMP280;12743;52.262;6.172;2023-06-10T00:54:31;101130.72;;;20.32
24586;BMP280;12743;52.262;6.172;2023-06-10T00:57:01;101130.72;;;20.25
24586;BMP280;12743;52.262;6.172;2023-06-10T00:59:31;101120.47;;;19.92
24586;BMP280;12743;52.262;6.172;2023-06-10T01:01:58;101134.16;;;20.29
24586;BMP280;12743;52.262;6.172;2023-06-10T01:04:28;101128.81;;;20.18
24586;BMP280;12743;52.262;6.172;2023-06-10T01:07:17;101124.25;;;20.22
24586;BMP280;12743;52.262;6.172;2023-06-10T01:12:55;101126.91;;;19.98
24586;BMP280;12743;52.262;6.172;2023-06-10T01:15:27;101116.25;;;19.91
24586;BMP280;12743;52.262;6.172;2023-06-10T01:17:58;101131.09;;;19.77
24586;BMP280;12743;52.262;6.172;2023-06-10T01:20:30;101129.59;;;19.98
24586;BMP280;12743;52.262;6.172;2023-06-10T01:22:59;101128.06;;;19.79
24586;BMP280;12743;52.262;6.172;2023-06-10T01:25:30;101132.63;;;19.93
24586;BMP280;12743;52.262;6.172;2023-06-10T01:33:27;101134.53;;;19.78
24586;BMP280;12743;52.262;6.172;2023-06-10T01:35:56;101136.81;;;19.79
24586;BMP280;12743;52.262;6.172;2023-06-10T01:38:25;101137.97;;;19.86
24586;BMP280;12743;52.262;6.172;2023-06-10T01:40:53;101130.34;;;19.77
24586;BMP280;12743;52.262;6.172;2023-06-10T01:43:22;101134.16;;;19.76
24586;BMP280;12743;52.262;6.172;2023-06-10T01:45:49;101137.91;;;19.50
24586;BMP280;12743;52.262;6.172;2023-06-10T01:48:16;101137.13;;;19.46
24586;BMP280;12743;52.262;6.172;2023-06-10T01:50:42;101133.75;;;19.60
24586;BMP280;12743;52.262;6.172;2023-06-10T01:53:10;101138.69;;;19.47
24586;BMP280;12743;52.262;6.172;2023-06-10T01:55:36;101131.06;;;19.49
24586;BMP280;12743;52.262;6.172;2023-06-10T01:58:03;101134.78;;;19.27
24586;BMP280;12743;52.262;6.172;2023-06-10T02:00:30;101138.72;;;19.68
24586;BMP280;12743;52.262;6.172;2023-06-10T02:02:56;101141.75;;;19.88
24586;BMP280;12743;52.262;6.172;2023-06-10T02:05:23;101138.31;;;19.56
24586;BMP280;12743;52.262;6.172;2023-06-10T02:07:50;101136.03;;;19.65
24586;BMP280;12743;52.262;6.172;2023-06-10T02:10:17;101122.25;;;19.35
24586;BMP280;12743;52.262;6.172;2023-06-10T02:12:43;101119.59;;;19.31
24586;BMP280;12743;52.262;6.172;2023-06-10T02:15:10;101130.25;;;19.31
24586;BMP280;12743;52.262;6.172;2023-06-10T02:17:37;101134.47;;;19.43
24586;BMP280;12743;52.262;6.172;2023-06-10T02:20:05;101132.03;;;19.06
24586;BMP280;12743;52.262;6.172;2023-06-10T02:22:33;101127.19;;;19.22
24586;BMP280;12743;52.262;6.172;2023-06-10T02:25:03;101120.72;;;18.51
24586;BMP280;12743;52.262;6.172;2023-06-10T02:27:30;101105.94;;;18.57
24586;BMP280;12743;52.262;6.172;2023-06-10T02:29:59;101111.28;;;18.61
24586;BMP280;12743;52.262;6.172;2023-06-10T02:32:26;101115.94;;;18.78
24586;BMP280;12743;52.262;6.172;2023-06-10T02:34:53;101116.16;;;18.55
24586;BMP280;12743;52.262;6.172;2023-06-10T02:37:22;101114.09;;;18.89
24586;BMP280;12743;52.262;6.172;2023-06-10T02:39:49;101125.94;;;18.99
24586;BMP280;12743;52.262;6.172;2023-06-10T02:42:15;101110.09;;;18.51
24586;BMP280;12743;52.262;6.172;2023-06-10T02:44:42;101113.16;;;18.57
24586;BMP280;12743;52.262;6.172;2023-06-10T02:47:13;101070.16;;;17.97
24586;BMP280;12743;52.262;6.172;2023-06-10T02:49:41;101101.66;;;18.46
24586;BMP280;12743;52.262;6.172;2023-06-10T02:52:08;101102.88;;;18.55
24586;BMP280;12743;52.262;6.172;2023-06-10T02:54:35;101109.34;;;18.54
24586;BMP280;12743;52.262;6.172;2023-06-10T02:57:02;101102.31;;;18.32
24586;BMP280;12743;52.262;6.172;2023-06-10T02:59:29;101097.44;;;18.38
24586;BMP280;12743;52.262;6.172;2023-06-10T03:01:56;101087.00;;;18.08
24586;BMP280;12743;52.262;6.172;2023-06-10T03:04:24;101082.47;;;18.19
24586;BMP280;12743;52.262;6.172;2023-06-10T03:06:59;101088.00;;;18.44
24586;BMP280;12743;52.262;6.172;2023-06-10T03:09:32;101083.72;;;17.85
24586;BMP280;12743;52.262;6.172;2023-06-10T03:12:00;101085.94;;;18.23
24586;BMP280;12743;52.262;6.172;2023-06-10T03:14:32;101087.78;;;18.16
24586;BMP280;12743;52.262;6.172;2023-06-10T03:16:59;101083.06;;;17.95
24586;BMP280;12743;52.262;6.172;2023-06-10T03:19:26;101063.63;;;17.87
24586;BMP280;12743;52.262;6.172;2023-06-10T03:24:39;101103.69;;;18.09
24586;BMP280;12743;52.262;6.172;2023-06-10T03:27:10;101075.38;;;17.86
24586;BMP280;12743;52.262;6.172;2023-06-10T03:29:39;101062.81;;;17.43
24586;BMP280;12743;52.262;6.172;2023-06-10T03:32:06;101069.19;;;17.72
24586;BMP280;12743;52.262;6.172;2023-06-10T03:34:35;101067.31;;;17.76
24586;BMP280;12743;52.262;6.172;2023-06-10T03:37:02;101077.06;;;18.05
24586;BMP280;12743;52.262;6.172;2023-06-10T03:39:29;101066.91;;;17.70
24586;BMP280;12743;52.262;6.172;2023-06-10T03:41:58;101061.78;;;17.92
24586;BMP280;12743;52.262;6.172;2023-06-10T03:44:27;101053.97;;;17.65
24586;BMP280;12743;52.262;6.172;2023-06-10T03:46:55;101062.34;;;17.71
24586;BMP280;12743;52.262;6.172;2023-06-10T03:49:24;101058.94;;;17.70
24586;BMP280;12743;52.262;6.172;2023-06-10T03:51:54;101069.38;;;17.56
24586;BMP280;12743;52.262;6.172;2023-06-10T03:54:21;101056.94;;;17.60
24586;BMP280;12743;52.262;6.172;2023-06-10T03:56:48;101058.28;;;17.44
24586;BMP280;12743;52.262;6.172;2023-06-10T03:59:15;101028.75;;;17.12
24586;BMP280;12743;52.262;6.172;2023-06-10T04:01:41;101031.03;;;17.17
24586;BMP280;12743;52.262;6.172;2023-06-10T04:04:13;101031.59;;;17.33
24586;BMP280;12743;52.262;6.172;2023-06-10T04:06:41;101035.78;;;17.31
24586;BMP280;12743;52.262;6.172;2023-06-10T04:09:10;101045.25;;;17.32
24586;BMP280;12743;52.262;6.172;2023-06-10T04:11:38;101050.84;;;17.60
24586;BMP280;12743;52.262;6.172;2023-06-10T04:14:06;101038.00;;;17.25
24586;BMP280;12743;52.262;6.172;2023-06-10T04:16:33;101051.47;;;17.46
24586;BMP280;12743;52.262;6.172;2023-06-10T04:19:00;101047.78;;;17.54
24586;BMP280;12743;52.262;6.172;2023-06-10T04:21:28;101039.38;;;17.49
24586;BMP280;12743;52.262;6.172;2023-06-10T04:23:55;101016.28;;;17.16
24586;BMP280;12743;52.262;6.172;2023-06-10T04:26:21;101041.53;;;17.36
24586;BMP280;12743;52.262;6.172;2023-06-10T04:28:50;101037.69;;;17.34
24586;BMP280;12743;52.262;6.172;2023-06-10T04:31:17;101049.16;;;17.41
24586;BMP280;12743;52.262;6.172;2023-06-10T04:33:45;101029.38;;;17.35
24586;BMP280;12743;52.262;6.172;2023-06-10T04:36:12;101036.25;;;17.43
24586;BMP280;12743;52.262;6.172;2023-06-10T04:38:38;101059.31;;;17.69
24586;BMP280;12743;52.262;6.172;2023-06-10T04:41:05;101012.09;;;17.15
24586;BMP280;12743;52.262;6.172;2023-06-10T04:43:34;101014.88;;;17.26
24586;BMP280;12743;52.262;6.172;2023-06-10T04:46:00;101024.22;;;17.53
24586;BMP280;12743;52.262;6.172;2023-06-10T04:48:28;101008.47;;;17.34
24586;BMP280;12743;52.262;6.172;2023-06-10T04:50:55;101023.56;;;17.59
24586;BMP280;12743;52.262;6.172;2023-06-10T04:53:23;101019.38;;;17.62
24586;BMP280;12743;52.262;6.172;2023-06-10T04:55:49;101005.19;;;17.47
24586;BMP280;12743;52.262;6.172;2023-06-10T04:58:16;100988.38;;;17.33
24586;BMP280;12743;52.262;6.172;2023-06-10T05:00:43;101008.84;;;17.72
24586;BMP280;12743;52.262;6.172;2023-06-10T05:03:10;101013.56;;;17.93
24586;BMP280;12743;52.262;6.172;2023-06-10T05:05:37;101011.06;;;17.67
24586;BMP280;12743;52.262;6.172;2023-06-10T05:08:03;101013.13;;;17.84
24586;BMP280;12743;52.262;6.172;2023-06-10T05:10:33;101008.94;;;17.86
24586;BMP280;12743;52.262;6.172;2023-06-10T05:13:00;101037.19;;;18.05
24586;BMP280;12743;52.262;6.172;2023-06-10T05:15:29;101041.31;;;17.96
24586;BMP280;12743;52.262;6.172;2023-06-10T05:17:57;101034.16;;;18.03
24586;BMP280;12743;52.262;6.172;2023-06-10T05:20:25;101033.94;;;18.33
24586;BMP280;12743;52.262;6.172;2023-06-10T05:22:52;101046.16;;;18.37
24586;BMP280;12743;52.262;6.172;2023-06-10T05:25:18;101037.81;;;18.42
24586;BMP280;12743;52.262;6.172;2023-06-10T05:27:45;101050.41;;;18.52
24586;BMP280;12743;52.262;6.172;2023-06-10T05:30:12;101041.59;;;18.34
24586;BMP280;12743;52.262;6.172;2023-06-10T05:32:39;101044.81;;;18.78
24586;BMP280;12743;52.262;6.172;2023-06-10T05:35:05;101020.88;;;18.75
24586;BMP280;12743;52.262;6.172;2023-06-10T05:37:34;101065.38;;;18.81
24586;BMP280;12743;52.262;6.172;2023-06-10T05:40:01;101051.63;;;18.65
24586;BMP280;12743;52.262;6.172;2023-06-10T05:42:28;101047.44;;;18.64
24586;BMP280;12743;52.262;6.172;2023-06-10T05:44:55;101059.31;;;18.92
24586;BMP280;12743;52.262;6.172;2023-06-10T05:47:21;101054.75;;;18.89
24586;BMP280;12743;52.262;6.172;2023-06-10T05:49:48;101053.34;;;19.19
24586;BMP280;12743;52.262;6.172;2023-06-10T05:52:16;101065.56;;;19.31
24586;BMP280;12743;52.262;6.172;2023-06-10T05:54:43;101077.78;;;19.53
24586;BMP280;12743;52.262;6.172;2023-06-10T05:57:09;101097.56;;;19.55
24586;BMP280;12743;52.262;6.172;2023-06-10T05:59:36;101077.78;;;19.56
24586;BMP280;12743;52.262;6.172;2023-06-10T06:02:03;101092.28;;;19.73
24586;BMP280;12743;52.262;6.172;2023-06-10T06:04:30;101101.38;;;19.72
24586;BMP280;12743;52.262;6.172;2023-06-10T06:06:56;101085.41;;;19.75
24586;BMP280;12743;52.262;6.172;2023-06-10T06:09:23;101084.63;;;19.68
24586;BMP280;12743;52.262;6.172;2023-06-10T06:11:50;101092.66;;;19.93
24586;BMP280;12743;52.262;6.172;2023-06-10T06:14:16;101107.13;;;20.16
24586;BMP280;12743;52.262;6.172;2023-06-10T06:16:43;101092.63;;;20.21
24586;BMP280;12743;52.262;6.172;2023-06-10T06:19:09;101106.72;;;20.25
24586;BMP280;12743;52.262;6.172;2023-06-10T06:21:37;101106.72;;;20.42
24586;BMP280;12743;52.262;6.172;2023-06-10T06:24:04;101117.00;;;20.33
24586;BMP280;12743;52.262;6.172;2023-06-10T06:26:31;101125.00;;;20.33
24586;BMP280;12743;52.262;6.172;2023-06-10T06:28:57;101115.09;;;20.27
24586;BMP280;12743;52.262;6.172;2023-06-10T06:31:24;101107.81;;;20.52
24586;BMP280;12743;52.262;6.172;2023-06-10T06:33:51;101116.91;;;20.72
24586;BMP280;12743;52.262;6.172;2023-06-10T06:36:18;101126.78;;;20.89
24586;BMP280;12743;52.262;6.172;2023-06-10T06:38:45;101138.81;;;21.25
24586;BMP280;12743;52.262;6.172;2023-06-10T06:41:12;101139.66;;;21.08
24586;BMP280;12743;52.262;6.172;2023-06-10T06:43:38;101134.56;;;21.35
24586;BMP280;12743;52.262;6.172;2023-06-10T06:49:45;101152.25;;;21.69
24586;BMP280;12743;52.262;6.172;2023-06-10T06:52:12;101161.81;;;21.70
24586;BMP280;12743;52.262;6.172;2023-06-10T06:54:39;101148.75;;;21.76
24586;BMP280;12743;52.262;6.172;2023-06-10T06:57:06;101158.28;;;22.25
24586;BMP280;12743;52.262;6.172;2023-06-10T06:59:33;101163.59;;;22.32
24586;BMP280;12743;52.262;6.172;2023-06-10T07:02:00;101167.47;;;22.27
24586;BMP280;12743;52.262;6.172;2023-06-10T07:04:27;101155.72;;;22.14
24586;BMP280;12743;52.262;6.172;2023-06-10T07:06:55;101174.94;;;22.43
24586;BMP280;12743;52.262;6.172;2023-06-10T07:09:22;101174.84;;;22.53
24586;BMP280;12743;52.262;6.172;2023-06-10T07:11:48;101177.94;;;22.48
24586;BMP280;12743;52.262;6.172;2023-06-10T07:14:15;101181.34;;;22.52
24586;BMP280;12743;52.262;6.172;2023-06-10T07:16:41;101183.50;;;22.64
24586;BMP280;12743;52.262;6.172;2023-06-10T07:19:08;101187.56;;;22.79
24586;BMP280;12743;52.262;6.172;2023-06-10T07:21:35;101182.19;;;22.79
24586;BMP280;12743;52.262;6.172;2023-06-10T07:24:02;101194.59;;;22.66
24586;BMP280;12743;52.262;6.172;2023-06-10T07:26:29;101201.69;;;22.46
24586;BMP280;12743;52.262;6.172;2023-06-10T07:28:56;101206.75;;;22.71
24586;BMP280;12743;52.262;6.172;2023-06-10T07:31:23;101194.38;;;22.84
24586;BMP280;12743;52.262;6.172;2023-06-10T07:33:51;101191.50;;;22.68
24586;BMP280;12743;52.262;6.172;2023-06-10T07:36:17;101206.22;;;22.86
24586;BMP280;12743;52.262;6.172;2023-06-10T07:38:44;101204.84;;;23.35
24586;BMP280;12743;52.262;6.172;2023-06-10T07:41:10;101207.13;;;23.86
24586;BMP280;12743;52.262;6.172;2023-06-10T07:43:37;101222.31;;;23.70
24586;BMP280;12743;52.262;6.172;2023-06-10T07:46:04;101225.22;;;23.82
24586;BMP280;12743;52.262;6.172;2023-06-10T07:48:32;101225.34;;;24.22
24586;BMP280;12743;52.262;6.172;2023-06-10T07:50:58;101234.22;;;24.19
24586;BMP280;12743;52.262;6.172;2023-06-10T07:53:26;101217.22;;;24.02
24586;BMP280;12743;52.262;6.172;2023-06-10T07:55:53;101220.84;;;23.92
24586;BMP280;12743;52.262;6.172;2023-06-10T07:58:20;101231.41;;;24.26
24586;BMP280;12743;52.262;6.172;2023-06-10T08:00:47;101224.41;;;24.51
24586;BMP280;12743;52.262;6.172;2023-06-10T08:03:14;101235.63;;;24.66
24586;BMP280;12743;52.262;6.172;2023-06-10T08:05:41;101235.91;;;24.71
24586;BMP280;12743;52.262;6.172;2023-06-10T08:08:08;101222.13;;;24.69
24586;BMP280;12743;52.262;6.172;2023-06-10T08:10:34;101225.66;;;25.02
24586;BMP280;12743;52.262;6.172;2023-06-10T08:13:01;101245.00;;;24.77
24586;BMP280;12743;52.262;6.172;2023-06-10T08:15:29;101237.66;;;24.81
24586;BMP280;12743;52.262;6.172;2023-06-10T08:17:55;101226.41;;;25.22
24586;BMP280;12743;52.262;6.172;2023-06-10T08:20:23;101244.81;;;25.23
24586;BMP280;12743;52.262;6.172;2023-06-10T08:22:49;101218.91;;;25.13
24586;BMP280;12743;52.262;6.172;2023-06-10T08:25:16;101236.94;;;25.49
24586;BMP280;12743;52.262;6.172;2023-06-10T08:27:43;101254.59;;;25.98
24586;BMP280;12743;52.262;6.172;2023-06-10T08:30:10;101256.28;;;25.76
24586;BMP280;12743;52.262;6.172;2023-06-10T08:32:37;101253.09;;;25.49
24586;BMP280;12743;52.262;6.172;2023-06-10T08:35:04;101257.06;;;25.60
24586;BMP280;12743;52.262;6.172;2023-06-10T08:37:30;101258.81;;;25.51
24586;BMP280;12743;52.262;6.172;2023-06-10T08:39:57;101255.88;;;25.61
24586;BMP280;12743;52.262;6.172;2023-06-10T08:45:01;101261.41;;;26.02
24586;BMP280;12743;52.262;6.172;2023-06-10T08:47:30;101254.03;;;25.90
24586;BMP280;12743;52.262;6.172;2023-06-10T08:50:03;101262.31;;;26.12
24586;BMP280;12743;52.262;6.172;2023-06-10T08:52:35;101262.84;;;26.07
24586;BMP280;12743;52.262;6.172;2023-06-10T08:55:09;101250.66;;;25.70
24586;BMP280;12743;52.262;6.172;2023-06-10T08:57:37;101264.59;;;26.13
24586;BMP280;12743;52.262;6.172;2023-06-10T09:00:05;101256.78;;;26.31
24586;BMP280;12743;52.262;6.172;2023-06-10T09:02:33;101255.81;;;26.66
24586;BMP280;12743;52.262;6.172;2023-06-10T09:05:02;101255.28;;;26.30
24586;BMP280;12743;52.262;6.172;2023-06-10T09:07:30;101258.72;;;26.59
24586;BMP280;12743;52.262;6.172;2023-06-10T09:09:58;101247.94;;;26.59
24586;BMP280;12743;52.262;6.172;2023-06-10T09:12:26;101248.97;;;26.78
24586;BMP280;12743;52.262;6.172;2023-06-10T09:14:53;101255.72;;;26.70
24586;BMP280;12743;52.262;6.172;2023-06-10T09:17:20;101229.88;;;26.85
24586;BMP280;12743;52.262;6.172;2023-06-10T09:19:47;101250.16;;;26.90
24586;BMP280;12743;52.262;6.172;2023-06-10T09:22:14;101233.44;;;26.41
24586;BMP280;12743;52.262;6.172;2023-06-10T09:24:41;101247.16;;;26.46
24586;BMP280;12743;52.262;6.172;2023-06-10T09:27:08;101248.31;;;26.87
24586;BMP280;12743;52.262;6.172;2023-06-10T09:32:15;101238.28;;;27.50
24586;BMP280;12743;52.262;6.172;2023-06-10T09:34:43;101252.41;;;27.54
24586;BMP280;12743;52.262;6.172;2023-06-10T09:37:10;101248.31;;;27.49
24586;BMP280;12743;52.262;6.172;2023-06-10T09:39:40;101247.38;;;27.18
24586;BMP280;12743;52.262;6.172;2023-06-10T09:42:17;101259.31;;;27.67
24586;BMP280;12743;52.262;6.172;2023-06-10T09:44:51;101241.47;;;27.70
24586;BMP280;12743;52.262;6.172;2023-06-10T09:47:22;101249.50;;;27.95
24586;BMP280;12743;52.262;6.172;2023-06-10T09:49:50;101248.78;;;27.82
24586;BMP280;12743;52.262;6.172;2023-06-10T09:52:24;101244.34;;;27.75
24586;BMP280;12743;52.262;6.172;2023-06-10T09:54:52;101250.59;;;27.85
24586;BMP280;12743;52.262;6.172;2023-06-10T09:57:20;101246.38;;;28.40
24586;BMP280;12743;52.262;6.172;2023-06-10T09:59:47;101235.66;;;28.14
24586;BMP280;12743;52.262;6.172;2023-06-10T10:02:17;101226.41;;;28.15
24586;BMP280;12743;52.262;6.172;2023-06-10T10:04:44;101240.84;;;28.00
24586;BMP280;12743;52.262;6.172;2023-06-10T10:07:11;101248.88;;;28.56
24586;BMP280;12743;52.262;6.172;2023-06-10T10:09:39;101246.22;;;28.65
24586;BMP280;12743;52.262;6.172;2023-06-10T10:12:09;101253.03;;;28.78
24586;BMP280;12743;52.262;6.172;2023-06-10T10:14:37;101247.91;;;28.41
24586;BMP280;12743;52.262;6.172;2023-06-10T10:17:08;101246.75;;;28.81
24586;BMP280;12743;52.262;6.172;2023-06-10T10:19:45;101227.59;;;28.36
24586;BMP280;12743;52.262;6.172;2023-06-10T10:22:39;101242.69;;;28.86
24586;BMP280;12743;52.262;6.172;2023-06-10T10:25:26;101230.84;;;28.53
24586;BMP280;12743;52.262;6.172;2023-06-10T10:28:02;101244.97;;;28.87
24586;BMP280;12743;52.262;6.172;2023-06-10T10:30:36;101236.94;;;29.05
24586;BMP280;12743;52.262;6.172;2023-06-10T10:33:12;101221.06;;;29.25
24586;BMP280;12743;52.262;6.172;2023-06-10T10:35:43;101222.28;;;29.87
24586;BMP280;12743;52.262;6.172;2023-06-10T10:38:10;101238.53;;;29.51
24586;BMP280;12743;52.262;6.172;2023-06-10T10:40:36;101242.44;;;29.50
24586;BMP280;12743;52.262;6.172;2023-06-10T10:43:04;101236.56;;;29.43
24586;BMP280;12743;52.262;6.172;2023-06-10T10:45:33;101234.00;;;29.93
24586;BMP280;12743;52.262;6.172;2023-06-10T10:48:06;101227.25;;;29.35
24586;BMP280;12743;52.262;6.172;2023-06-10T10:50:35;101227.66;;;29.24
24586;BMP280;12743;52.262;6.172;2023-06-10T10:53:03;101197.25;;;29.11
24586;BMP280;12743;52.262;6.172;2023-06-10T10:55:30;101222.56;;;29.53
24586;BMP280;12743;52.262;6.172;2023-06-10T10:58:08;101219.59;;;29.60
24586;BMP280;12743;52.262;6.172;2023-06-10T11:00:43;101208.34;;;29.04
24586;BMP280;12743;52.262;6.172;2023-06-10T11:03:14;101212.63;;;29.50
24586;BMP280;12743;52.262;6.172;2023-06-10T11:05:48;101217.19;;;29.71
24586;BMP280;12743;52.262;6.172;2023-06-10T11:11:24;101211.81;;;30.22
24586;BMP280;12743;52.262;6.172;2023-06-10T11:14:26;101220.66;;;30.32
24586;BMP280;12743;52.262;6.172;2023-06-10T11:16:57;101203.59;;;30.49
24586;BMP280;12743;52.262;6.172;2023-06-10T11:19:35;101213.81;;;30.63
24586;BMP280;12743;52.262;6.172;2023-06-10T11:22:07;101198.97;;;30.32
24586;BMP280;12743;52.262;6.172;2023-06-10T11:24:34;101190.00;;;30.26
24586;BMP280;12743;52.262;6.172;2023-06-10T11:27:21;101200.69;;;30.62
24586;BMP280;12743;52.262;6.172;2023-06-10T11:32:29;101188.50;;;31.13
24586;BMP280;12743;52.262;6.172;2023-06-10T11:34:58;101188.16;;;30.97
24586;BMP280;12743;52.262;6.172;2023-06-10T11:37:25;101193.91;;;30.90
24586;BMP280;12743;52.262;6.172;2023-06-10T11:39:55;101198.50;;;30.75
24586;BMP280;12743;52.262;6.172;2023-06-10T11:42:22;101201.50;;;31.24
24586;BMP280;12743;52.262;6.172;2023-06-10T11:44:53;101199.47;;;30.63
24586;BMP280;12743;52.262;6.172;2023-06-10T11:47:20;101191.63;;;30.65
24586;BMP280;12743;52.262;6.172;2023-06-10T11:49:57;101185.84;;;30.48
24586;BMP280;12743;52.262;6.172;2023-06-10T11:52:30;101183.94;;;30.40
24586;BMP280;12743;52.262;6.172;2023-06-10T11:55:04;101197.72;;;30.83
24586;BMP280;12743;52.262;6.172;2023-06-10T11:57:34;101197.84;;;30.89
24586;BMP280;12743;52.262;6.172;2023-06-10T12:00:05;101197.84;;;30.89
24586;BMP280;12743;52.262;6.172;2023-06-10T12:02:36;101199.97;;;31.08
24586;BMP280;12743;52.262;6.172;2023-06-10T12:05:12;101202.16;;;30.95
24586;BMP280;12743;52.262;6.172;2023-06-10T12:07:38;101191.22;;;31.66
24586;BMP280;12743;52.262;6.172;2023-06-10T12:10:05;101195.09;;;31.36
24586;BMP280;12743;52.262;6.172;2023-06-10T12:12:52;101165.25;;;31.50
24586;BMP280;12743;52.262;6.172;2023-06-10T12:15:24;101180.72;;;31.59
24586;BMP280;12743;52.262;6.172;2023-06-10T12:17:52;101183.53;;;31.79
24586;BMP280;12743;52.262;6.172;2023-06-10T12:20:27;101168.34;;;31.58
24586;BMP280;12743;52.262;6.172;2023-06-10T12:22:54;101177.06;;;31.62
24586;BMP280;12743;52.262;6.172;2023-06-10T12:25:26;101158.53;;;31.75
24586;BMP280;12743;52.262;6.172;2023-06-10T12:27:54;101185.03;;;32.09
24586;BMP280;12743;52.262;6.172;2023-06-10T12:30:23;101173.03;;;31.86
24586;BMP280;12743;52.262;6.172;2023-06-10T12:32:51;101175.00;;;31.71
24586;BMP280;12743;52.262;6.172;2023-06-10T12:35:20;101162.63;;;31.85
24586;BMP280;12743;52.262;6.172;2023-06-10T12:38:00;101184.34;;;32.14
24586;BMP280;12743;52.262;6.172;2023-06-10T12:40:36;101172.94;;;32.10
24586;BMP280;12743;52.262;6.172;2023-06-10T12:43:04;101174.41;;;32.11
24586;BMP280;12743;52.262;6.172;2023-06-10T12:45:35;101167.97;;;32.43
24586;BMP280;12743;52.262;6.172;2023-06-10T12:50:40;101177.16;;;32.66
24586;BMP280;12743;52.262;6.172;2023-06-10T12:53:07;101165.66;;;32.36
24586;BMP280;12743;52.262;6.172;2023-06-10T12:55:34;101162.28;;;32.27
24586;BMP280;12743;52.262;6.172;2023-06-10T12:58:02;101150.66;;;31.91
24586;BMP280;12743;52.262;6.172;2023-06-10T13:00:30;101170.84;;;32.54
24586;BMP280;12743;52.262;6.172;2023-06-10T13:02:59;101147.81;;;32.70
24586;BMP280;12743;52.262;6.172;2023-06-10T13:05:29;101166.19;;;32.75
24586;BMP280;12743;52.262;6.172;2023-06-10T13:07:55;101164.72;;;32.39
24586;BMP280;12743;52.262;6.172;2023-06-10T13:10:22;101141.03;;;32.25
24586;BMP280;12743;52.262;6.172;2023-06-10T13:12:52;101165.13;;;32.18
24586;BMP280;12743;52.262;6.172;2023-06-10T13:15:19;101170.09;;;32.74
24586;BMP280;12743;52.262;6.172;2023-06-10T13:17:45;101163.00;;;32.82
24586;BMP280;12743;52.262;6.172;2023-06-10T13:20:17;101167.97;;;32.63
24586;BMP280;12743;52.262;6.172;2023-06-10T13:22:43;101164.41;;;32.52
24586;BMP280;12743;52.262;6.172;2023-06-10T13:25:10;101151.22;;;31.95
24586;BMP280;12743;52.262;6.172;2023-06-10T13:27:38;101150.53;;;32.15
24586;BMP280;12743;52.262;6.172;2023-06-10T13:30:06;101153.31;;;32.75
24586;BMP280;12743;52.262;6.172;2023-06-10T13:32:33;101146.53;;;33.67
24586;BMP280;12743;52.262;6.172;2023-06-10T13:35:00;101149.16;;;33.25
24586;BMP280;12743;52.262;6.172;2023-06-10T13:37:30;101157.66;;;33.33
24586;BMP280;12743;52.262;6.172;2023-06-10T13:39:57;101150.50;;;32.90
24586;BMP280;12743;52.262;6.172;2023-06-10T13:42:23;101144.84;;;33.13
24586;BMP280;12743;52.262;6.172;2023-06-10T13:44:52;101147.75;;;33.35
24586;BMP280;12743;52.262;6.172;2023-06-10T13:47:19;101137.25;;;32.77
24586;BMP280;12743;52.262;6.172;2023-06-10T13:49:47;101137.81;;;33.89
24586;BMP280;12743;52.262;6.172;2023-06-10T13:52:14;101139.41;;;33.70
24586;BMP280;12743;52.262;6.172;2023-06-10T13:54:40;101144.22;;;33.29
24586;BMP280;12743;52.262;6.172;2023-06-10T13:57:07;101139.53;;;34.28
24586;BMP280;12743;52.262;6.172;2023-06-10T13:59:36;101148.06;;;33.68
24586;BMP280;12743;52.262;6.172;2023-06-10T14:02:03;101137.03;;;33.57
24586;BMP280;12743;52.262;6.172;2023-06-10T14:04:30;101143.22;;;33.52
24586;BMP280;12743;52.262;6.172;2023-06-10T14:06:57;101132.91;;;33.62
24586;BMP280;12743;52.262;6.172;2023-06-10T14:09:24;101131.09;;;33.53
24586;BMP280;12743;52.262;6.172;2023-06-10T14:11:50;101117.53;;;32.62
24586;BMP280;12743;52.262;6.172;2023-06-10T14:14:17;101124.50;;;34.02
24586;BMP280;12743;52.262;6.172;2023-06-10T14:16:44;101135.59;;;33.93
24586;BMP280;12743;52.262;6.172;2023-06-10T14:19:11;101145.69;;;33.50
24586;BMP280;12743;52.262;6.172;2023-06-10T14:21:37;101135.09;;;34.36
24586;BMP280;12743;52.262;6.172;2023-06-10T14:24:04;101122.44;;;33.91
24586;BMP280;12743;52.262;6.172;2023-06-10T14:26:31;101121.81;;;34.66
24586;BMP280;12743;52.262;6.172;2023-06-10T14:28:59;101133.81;;;33.84
24586;BMP280;12743;52.262;6.172;2023-06-10T14:31:27;101122.34;;;34.87